Time;durP1;ratioP1;P1;durP2;ratioP2;P2;SDS_P1;SDS_P2;PMS_P1;PMS_P2;Temp;Humidity;BMP_temperature;BMP_pressure;BME280_temperature;BME280_humidity;BME280_pressure;Samples;Min_cycle;Max_cycle;Signal;HPM_P1;HPM_P2
2022/07/18 00:01:55;;;;;;;91.07;8.60;;;44.20;34.80;;;;;;5013455;28;20041;-71
2022/07/18 00:04:21;;;;;;;71.70;8.32;;;44.00;35.00;;;;;;5013089;28;20043;-70
2022/07/18 00:06:48;;;;;;;77.72;9.32;;;43.70;34.80;;;;;;5014717;28;20143;-68
2022/07/18 00:09:14;;;;;;;55.58;6.97;;;43.50;35.00;;;;;;5023483;28;20063;-69
2022/07/18 00:11:41;;;;;;;60.92;7.15;;;43.60;34.40;;;;;;5037676;28;20654;-70
2022/07/18 00:14:08;;;;;;;51.85;5.53;;;43.60;33.90;;;;;;5012500;28;20058;-72
2022/07/18 00:16:34;;;;;;;62.63;6.07;;;43.40;33.90;;;;;;5030481;28;20041;-72
2022/07/18 00:19:02;;;;;;;67.35;7.13;;;43.30;33.90;;;;;;5037959;28;20111;-69
2022/07/18 00:21:28;;;;;;;56.15;5.82;;;43.20;33.40;;;;;;5013471;28;20030;-72
2022/07/18 00:23:55;;;;;;;55.88;5.90;;;43.10;33.30;;;;;;5017736;28;20048;-72
2022/07/18 00:26:21;;;;;;;57.67;7.07;;;43.00;33.10;;;;;;5017327;28;20061;-67
2022/07/18 00:28:48;;;;;;;50.22;5.60;;;42.80;33.20;;;;;;5032648;28;20094;-67
2022/07/18 00:31:14;;;;;;;42.78;4.75;;;42.80;32.90;;;;;;5022168;28;20056;-69
2022/07/18 00:33:41;;;;;;;51.33;6.07;;;42.70;32.80;;;;;;5011699;28;20386;-67
2022/07/18 00:36:07;;;;;;;46.30;5.70;;;42.80;32.20;;;;;;5016674;28;20089;-70
2022/07/18 00:38:34;;;;;;;38.35;5.28;;;42.80;32.00;;;;;;5017657;28;20586;-70
2022/07/18 00:41:00;;;;;;;66.18;5.18;;;42.80;31.50;;;;;;5033368;28;20040;-72
2022/07/18 00:43:27;;;;;;;55.63;5.60;;;42.70;31.00;;;;;;5011300;28;20064;-71
2022/07/18 00:45:53;;;;;;;54.63;4.88;;;42.60;31.00;;;;;;5013315;28;20040;-71
2022/07/18 00:48:20;;;;;;;53.85;4.95;;;42.60;31.00;;;;;;5034150;28;20043;-70
2022/07/18 00:50:47;;;;;;;64.90;4.85;;;42.40;31.00;;;;;;5027818;28;20055;-70
2022/07/18 00:53:14;;;;;;;59.70;5.07;;;42.40;30.90;;;;;;5012622;28;20047;-71
2022/07/18 00:55:42;;;;;;;64.40;5.60;;;42.40;31.30;;;;;;5029424;28;20046;-69
2022/07/18 00:58:11;;;;;;;38.65;4.18;;;42.40;30.60;;;;;;5031116;28;20059;-67
2022/07/18 01:03:24;;;;;;;46.97;3.67;;;42.30;30.20;;;;;;5013913;28;20127;-68
2022/07/18 01:05:50;;;;;;;44.55;4.68;;;42.20;30.00;;;;;;5020434;28;20822;-71
2022/07/18 01:08:17;;;;;;;32.38;3.10;;;42.10;29.90;;;;;;5037453;28;20058;-70
2022/07/18 01:10:43;;;;;;;34.13;3.17;;;41.90;29.90;;;;;;5032933;28;20052;-69
2022/07/18 01:13:10;;;;;;;30.15;3.63;;;41.80;30.00;;;;;;5013436;28;20051;-70
2022/07/18 01:15:36;;;;;;;30.98;3.78;;;41.70;30.10;;;;;;5029749;28;20047;-69
2022/07/18 01:18:04;;;;;;;48.10;4.97;;;41.70;30.10;;;;;;5032026;28;20076;-70
2022/07/18 01:20:32;;;;;;;46.42;4.45;;;41.60;29.90;;;;;;5034302;23;20092;-69
2022/07/18 01:22:59;;;;;;;23.40;3.13;;;41.50;29.40;;;;;;5032313;28;20402;-71
2022/07/18 01:25:25;;;;;;;22.40;2.88;;;41.40;29.30;;;;;;5017170;28;20079;-68
2022/07/18 01:27:52;;;;;;;20.90;2.72;;;41.40;29.30;;;;;;5014731;28;20082;-70
2022/07/18 01:30:18;;;;;;;19.33;2.38;;;41.40;29.40;;;;;;5035881;28;20076;-69
2022/07/18 01:32:45;;;;;;;39.72;3.10;;;41.30;29.50;;;;;;5014602;28;20049;-69
2022/07/18 01:35:12;;;;;;;21.52;2.78;;;41.20;29.50;;;;;;5016421;28;20059;-72
2022/07/18 01:37:38;;;;;;;25.60;2.60;;;41.10;29.70;;;;;;5014271;28;20124;-70
2022/07/18 01:40:10;;;;;;;14.32;2.38;;;41.10;29.60;;;;;;5016549;28;20044;-70
2022/07/18 01:42:36;;;;;;;25.23;2.40;;;41.10;29.70;;;;;;5030228;28;20057;-70
2022/07/18 01:45:03;;;;;;;18.55;2.50;;;41.10;29.50;;;;;;5015236;28;20084;-72
2022/07/18 01:47:30;;;;;;;20.60;2.67;;;41.00;29.60;;;;;;5026411;28;20062;-69
2022/07/18 01:49:56;;;;;;;19.23;2.72;;;40.90;29.60;;;;;;5034545;28;20085;-67
2022/07/18 01:52:22;;;;;;;25.02;2.75;;;40.90;29.70;;;;;;5021102;28;20417;-69
2022/07/18 01:54:49;;;;;;;23.67;3.13;;;40.90;29.80;;;;;;5015591;28;20073;-70
2022/07/18 01:57:15;;;;;;;32.92;3.53;;;40.90;29.80;;;;;;5016606;28;20069;-67
2022/07/18 01:59:41;;;;;;;21.42;2.80;;;40.90;29.90;;;;;;5016151;28;20085;-69
2022/07/18 02:02:08;;;;;;;27.52;2.30;;;40.80;30.00;;;;;;5015180;28;20058;-69
2022/07/18 02:07:19;;;;;;;16.42;2.63;;;40.70;30.40;;;;;;5014176;28;20054;-71
2022/07/18 02:09:45;;;;;;;24.05;2.35;;;40.70;30.90;;;;;;5040092;28;20055;-69
2022/07/18 02:12:12;;;;;;;23.05;2.95;;;40.60;31.30;;;;;;5014747;28;20055;-69
2022/07/18 02:14:38;;;;;;;26.80;2.47;;;40.50;31.40;;;;;;5014009;28;20145;-70
2022/07/18 02:17:04;;;;;;;26.60;2.47;;;40.50;31.90;;;;;;5028466;28;20091;-71
2022/07/18 02:19:31;;;;;;;29.63;2.40;;;40.40;32.20;;;;;;5019630;28;20086;-70
2022/07/18 02:21:57;;;;;;;25.50;2.53;;;40.20;32.40;;;;;;5013087;28;20425;-70
2022/07/18 02:24:23;;;;;;;18.90;2.70;;;40.20;32.90;;;;;;5028285;28;20059;-70
2022/07/18 02:26:50;;;;;;;18.92;2.20;;;40.10;33.40;;;;;;5013141;28;20463;-69
2022/07/18 02:29:16;;;;;;;19.38;2.60;;;40.00;33.60;;;;;;5021768;28;20155;-72
2022/07/18 02:31:43;;;;;;;21.45;2.53;;;39.90;34.00;;;;;;5015440;28;20516;-70
2022/07/18 02:34:12;;;;;;;23.88;2.88;;;39.80;34.50;;;;;;5014201;28;20224;-70
2022/07/18 02:36:40;;;;;;;22.08;2.85;;;39.70;34.70;;;;;;5015087;28;20484;-70
2022/07/18 02:39:08;;;;;;;20.58;2.55;;;39.70;35.00;;;;;;5027648;28;20660;-72
2022/07/18 02:41:35;;;;;;;21.98;2.65;;;39.60;35.00;;;;;;5012341;28;20061;-70
2022/07/18 02:44:04;;;;;;;17.95;2.53;;;39.60;35.30;;;;;;5022270;28;20124;-71
2022/07/18 02:46:32;;;;;;;22.98;2.70;;;39.50;35.40;;;;;;5027578;28;20048;-70
2022/07/18 02:48:58;;;;;;;13.57;2.20;;;39.40;35.60;;;;;;5028280;28;20102;-69
2022/07/18 02:51:24;;;;;;;14.23;2.70;;;39.30;35.50;;;;;;5016324;28;20549;-72
2022/07/18 02:53:51;;;;;;;15.32;2.60;;;39.30;35.80;;;;;;5013204;28;20099;-71
2022/07/18 02:56:17;;;;;;;20.30;2.33;;;39.20;35.50;;;;;;5041874;28;20115;-70
2022/07/18 02:58:44;;;;;;;11.32;2.25;;;39.20;35.60;;;;;;5021677;28;20075;-70
2022/07/18 03:01:10;;;;;;;18.30;2.90;;;39.20;35.80;;;;;;5011646;28;20050;-70
2022/07/18 03:03:36;;;;;;;28.67;2.95;;;39.10;35.80;;;;;;5026133;28;20503;-70
2022/07/18 03:06:03;;;;;;;14.80;2.42;;;39.10;36.00;;;;;;5028568;28;20431;-71
2022/07/18 03:08:29;;;;;;;17.02;2.53;;;39.10;36.20;;;;;;5027546;28;20048;-72
2022/07/18 03:10:56;;;;;;;16.63;2.45;;;39.10;36.20;;;;;;5014047;28;20066;-70
2022/07/18 03:13:22;;;;;;;18.60;2.50;;;39.00;36.20;;;;;;5027672;28;20077;-72
2022/07/18 03:15:49;;;;;;;20.65;2.50;;;39.00;36.20;;;;;;5043846;28;20066;-72
2022/07/18 03:18:15;;;;;;;18.98;2.60;;;38.90;36.40;;;;;;5014626;28;20077;-71
2022/07/18 03:20:42;;;;;;;11.30;1.95;;;38.80;36.50;;;;;;5014678;28;20488;-70
2022/07/18 03:23:09;;;;;;;21.02;2.67;;;38.80;36.90;;;;;;5016829;28;20150;-70
2022/07/18 03:25:36;;;;;;;17.65;2.55;;;38.70;37.20;;;;;;5025836;28;20049;-70
2022/07/18 03:28:02;;;;;;;19.50;2.25;;;38.70;37.50;;;;;;5027309;28;20059;-72
2022/07/18 03:30:29;;;;;;;21.27;2.97;;;38.70;37.60;;;;;;5013500;28;20070;-71
2022/07/18 03:32:55;;;;;;;16.15;2.63;;;38.60;37.90;;;;;;5016225;28;20060;-70
2022/07/18 03:35:22;;;;;;;13.10;2.88;;;38.60;38.80;;;;;;5026973;28;20121;-70
2022/07/18 03:37:48;;;;;;;18.30;3.17;;;38.50;39.40;;;;;;5011905;28;20179;-70
2022/07/18 03:40:14;;;;;;;15.60;2.85;;;38.40;39.90;;;;;;5014313;28;20075;-70
2022/07/18 03:42:41;;;;;;;12.40;2.80;;;38.40;40.50;;;;;;5014424;28;20067;-70
2022/07/18 03:45:08;;;;;;;18.38;3.10;;;38.30;41.40;;;;;;5007421;28;20504;-70
2022/07/18 03:47:35;;;;;;;25.20;3.15;;;38.30;42.10;;;;;;5014076;28;20451;-70
2022/07/18 03:50:02;;;;;;;18.20;4.00;;;38.10;42.90;;;;;;5015681;28;20468;-72
2022/07/18 03:52:28;;;;;;;23.67;3.33;;;38.00;43.60;;;;;;5014281;28;20077;-70
2022/07/18 03:54:55;;;;;;;15.75;3.10;;;37.90;44.70;;;;;;5010965;28;20501;-72
2022/07/18 03:57:21;;;;;;;16.00;2.90;;;37.80;45.30;;;;;;5012504;28;20444;-72
2022/07/18 03:59:47;;;;;;;22.00;3.30;;;37.80;46.10;;;;;;5016485;28;20069;-70
2022/07/18 04:02:14;;;;;;;16.20;3.33;;;37.70;46.60;;;;;;5011366;28;20117;-70
2022/07/18 04:04:40;;;;;;;15.00;2.75;;;37.60;47.00;;;;;;5026797;28;20061;-70
2022/07/18 04:07:07;;;;;;;16.70;3.00;;;37.60;47.30;;;;;;5014566;28;20065;-72
2022/07/18 04:09:33;;;;;;;18.60;3.30;;;37.50;47.50;;;;;;5013482;28;20064;-71
2022/07/18 04:11:59;;;;;;;16.25;3.08;;;37.50;47.90;;;;;;5017024;28;20538;-70
2022/07/18 04:14:26;;;;;;;18.52;2.75;;;37.50;48.10;;;;;;5018947;28;20077;-70
2022/07/18 04:16:52;;;;;;;24.35;3.50;;;37.50;48.30;;;;;;5014618;28;20070;-71
2022/07/18 04:19:19;;;;;;;11.55;3.20;;;37.40;48.50;;;;;;5015707;28;20208;-69
2022/07/18 04:21:46;;;;;;;23.83;3.28;;;37.40;48.70;;;;;;5028999;28;20075;-70
2022/07/18 04:24:12;;;;;;;22.88;2.85;;;37.30;48.50;;;;;;5010387;28;20181;-68
2022/07/18 04:26:38;;;;;;;23.10;3.72;;;37.20;48.50;;;;;;5011417;28;20067;-72
2022/07/18 04:29:05;;;;;;;14.07;3.15;;;37.10;48.60;;;;;;5042453;28;20534;-70
2022/07/18 04:31:31;;;;;;;21.88;3.20;;;37.10;48.60;;;;;;5024734;28;20697;-69
2022/07/18 04:33:58;;;;;;;26.92;3.13;;;37.10;48.10;;;;;;5012853;28;20532;-71
2022/07/18 04:36:25;;;;;;;18.52;3.35;;;37.00;47.50;;;;;;5010797;28;20114;-69
2022/07/18 04:38:52;;;;;;;28.50;3.17;;;36.90;47.70;;;;;;5010620;28;20097;-70
2022/07/18 04:41:22;;;;;;;25.73;3.42;;;36.80;46.90;;;;;;5017167;28;20098;-71
2022/07/18 04:43:48;;;;;;;42.50;5.68;;;36.70;47.00;;;;;;5016268;28;20085;-70
2022/07/18 04:46:14;;;;;;;35.17;4.95;;;36.60;47.10;;;;;;5015251;28;20083;-70
2022/07/18 04:48:41;;;;;;;35.00;5.50;;;36.50;47.20;;;;;;5034276;28;20068;-72
2022/07/18 04:51:07;;;;;;;38.70;6.35;;;36.50;47.20;;;;;;5018792;28;20538;-70
2022/07/18 04:53:34;;;;;;;38.72;7.60;;;36.50;47.40;;;;;;5018394;28;20131;-68
2022/07/18 04:56:00;;;;;;;32.10;5.72;;;36.40;47.60;;;;;;5014742;28;20095;-68
2022/07/18 04:58:26;;;;;;;32.17;4.40;;;36.40;47.90;;;;;;5014106;28;20084;-70
2022/07/18 05:00:53;;;;;;;34.63;5.55;;;36.40;48.30;;;;;;5021421;28;20086;-69
2022/07/18 05:03:19;;;;;;;25.98;4.93;;;36.30;48.80;;;;;;5031500;28;20067;-71
2022/07/18 05:05:45;;;;;;;23.40;4.60;;;36.20;49.70;;;;;;5017422;28;20072;-69
2022/07/18 05:08:13;;;;;;;39.55;4.95;;;36.20;50.20;;;;;;5016907;28;20159;-68
2022/07/18 05:10:40;;;;;;;32.53;4.85;;;36.00;50.70;;;;;;5014781;28;20084;-71
2022/07/18 05:13:06;;;;;;;26.45;4.95;;;36.00;51.10;;;;;;5028413;28;20454;-68
2022/07/18 05:15:33;;;;;;;31.88;3.88;;;36.00;51.40;;;;;;5014550;28;20162;-69
2022/07/18 05:17:59;;;;;;;29.27;3.78;;;36.00;51.50;;;;;;5019224;28;20088;-70
2022/07/18 05:20:27;;;;;;;29.58;3.67;;;35.90;51.70;;;;;;5014540;28;20109;-70
2022/07/18 05:22:54;;;;;;;36.75;4.47;;;35.90;51.70;;;;;;5025709;28;20676;-72
2022/07/18 05:25:24;;;;;;;35.95;4.68;;;35.80;51.90;;;;;;5016009;28;20171;-70
2022/07/18 05:27:51;;;;;;;31.50;4.57;;;35.80;52.10;;;;;;5015374;28;20093;-70
2022/07/18 05:30:19;;;;;;;33.97;4.55;;;35.60;52.20;;;;;;5037046;28;20443;-71
2022/07/18 05:32:45;;;;;;;35.78;4.32;;;35.60;52.40;;;;;;5014426;28;20081;-70
2022/07/18 05:35:13;;;;;;;18.52;4.13;;;35.50;52.80;;;;;;5015673;28;20080;-69
2022/07/18 05:37:40;;;;;;;25.00;4.88;;;35.50;53.00;;;;;;5014438;28;20558;-71
2022/07/18 05:40:09;;;;;;;29.50;4.20;;;35.40;53.50;;;;;;5013081;28;20096;-69
2022/07/18 05:42:35;;;;;;;25.13;4.88;;;35.30;53.70;;;;;;5018566;28;20060;-69
2022/07/18 05:45:02;;;;;;;26.85;4.00;;;35.30;53.70;;;;;;5031167;28;20077;-71
2022/07/18 05:47:29;;;;;;;25.60;3.45;;;35.40;53.70;;;;;;5014564;28;20084;-69
2022/07/18 05:49:55;;;;;;;27.15;5.63;;;35.30;53.60;;;;;;5021673;28;20432;-69
2022/07/18 05:52:22;;;;;;;20.10;3.70;;;35.30;53.90;;;;;;5015184;28;20072;-70
2022/07/18 05:54:48;;;;;;;19.63;3.85;;;35.30;53.80;;;;;;5016220;28;20116;-70
2022/07/18 05:57:14;;;;;;;20.35;3.42;;;35.10;54.10;;;;;;5019130;28;20096;-70
2022/07/18 05:59:41;;;;;;;26.08;3.60;;;35.10;54.30;;;;;;5014105;28;20070;-69
2022/07/18 06:02:07;;;;;;;26.25;4.47;;;35.10;54.50;;;;;;5012953;28;20073;-70
2022/07/18 06:04:35;;;;;;;20.25;4.30;;;35.00;54.60;;;;;;5013824;28;20064;-69
2022/07/18 06:07:02;;;;;;;23.90;4.63;;;35.00;54.80;;;;;;5029130;28;20085;-71
2022/07/18 06:09:31;;;;;;;20.30;4.65;;;35.00;54.90;;;;;;5013987;28;20524;-69
2022/07/18 06:12:01;;;;;;;22.98;4.68;;;34.90;55.20;;;;;;5014275;28;20074;-69
2022/07/18 06:14:29;;;;;;;23.17;4.18;;;34.90;55.60;;;;;;5019563;28;20092;-69
2022/07/18 06:16:55;;;;;;;17.83;5.03;;;34.90;55.60;;;;;;5036165;28;20558;-70
2022/07/18 06:19:22;;;;;;;27.60;5.10;;;34.80;55.80;;;;;;4944685;28;1985137;-69
2022/07/18 06:21:49;;;;;;;21.85;4.45;;;34.70;56.00;;;;;;5027604;28;20073;-69
2022/07/18 06:24:15;;;;;;;21.58;4.75;;;34.70;56.10;;;;;;5028011;28;20118;-69
2022/07/18 06:26:42;;;;;;;25.17;4.35;;;34.80;56.00;;;;;;5012752;28;20073;-70
2022/07/18 06:29:08;;;;;;;26.23;5.05;;;34.80;56.10;;;;;;5014219;28;20192;-70
2022/07/18 06:31:34;;;;;;;19.85;4.05;;;34.70;56.10;;;;;;5022981;28;20096;-70
2022/07/18 06:34:01;;;;;;;28.67;4.90;;;34.70;56.20;;;;;;5013588;28;20085;-71
2022/07/18 06:36:28;;;;;;;20.90;4.78;;;34.60;56.10;;;;;;5014227;28;20085;-72
2022/07/18 06:38:54;;;;;;;23.50;4.53;;;34.60;56.30;;;;;;5028889;28;20096;-71
2022/07/18 06:41:20;;;;;;;31.30;4.97;;;34.60;56.30;;;;;;5034075;28;20148;-70
2022/07/18 06:43:47;;;;;;;13.70;3.90;;;34.60;56.40;;;;;;5030071;28;20096;-69
2022/07/18 06:46:13;;;;;;;24.15;3.85;;;34.60;56.10;;;;;;5014259;28;20076;-69
2022/07/18 06:48:39;;;;;;;21.23;4.20;;;34.50;55.60;;;;;;5029147;28;20085;-72
2022/07/18 06:51:08;;;;;;;14.13;3.28;;;34.50;55.50;;;;;;5014391;28;20415;-70
2022/07/18 06:53:35;;;;;;;17.75;4.25;;;34.30;55.40;;;;;;5017220;28;20077;-71
2022/07/18 06:56:05;;;;;;;15.15;3.55;;;34.30;55.50;;;;;;5016905;28;20181;-70
2022/07/18 06:58:31;;;;;;;19.15;3.65;;;34.40;55.20;;;;;;5015859;28;20128;-70
2022/07/18 07:00:58;;;;;;;16.63;3.40;;;34.30;55.00;;;;;;5028950;28;20610;-70
2022/07/18 07:03:24;;;;;;;21.05;4.35;;;34.20;55.10;;;;;;5018614;28;20087;-73
2022/07/18 07:05:51;;;;;;;23.52;4.22;;;34.30;55.20;;;;;;5015846;28;20447;-69
2022/07/18 07:08:17;;;;;;;19.80;5.07;;;34.20;55.20;;;;;;5012992;28;20077;-72
2022/07/18 07:10:44;;;;;;;19.08;4.45;;;34.20;55.30;;;;;;5013825;28;20486;-71
2022/07/18 07:13:10;;;;;;;17.27;3.72;;;34.20;55.30;;;;;;5012176;28;20126;-69
2022/07/18 07:15:37;;;;;;;21.92;5.97;;;34.20;55.40;;;;;;5030214;28;20073;-69
2022/07/18 07:18:03;;;;;;;18.42;3.85;;;34.10;55.60;;;;;;5010431;28;20088;-70
2022/07/18 07:20:30;;;;;;;18.50;4.63;;;34.00;55.80;;;;;;5041461;28;20167;-70
2022/07/18 07:23:01;;;;;;;22.83;3.80;;;33.90;56.20;;;;;;5041786;28;20113;-70
2022/07/18 07:25:27;;;;;;;14.75;3.50;;;33.90;56.40;;;;;;5013552;28;20070;-70
2022/07/18 07:27:54;;;;;;;14.93;4.35;;;33.80;56.40;;;;;;5012147;28;20073;-71
2022/07/18 07:30:21;;;;;;;15.55;4.20;;;33.90;56.40;;;;;;5018506;28;20084;-70
2022/07/18 07:32:48;;;;;;;17.55;6.60;;;33.80;56.60;;;;;;5015901;28;20081;-70
2022/07/18 07:35:16;;;;;;;19.48;7.22;;;33.80;57.30;;;;;;5014501;28;20101;-70
2022/07/18 07:37:54;;;;;;;19.83;4.80;;;33.80;56.80;;;;;;5016648;28;20102;-70
2022/07/18 07:40:22;;;;;;;13.98;3.55;;;33.80;56.80;;;;;;5028462;28;20545;-70
2022/07/18 07:42:48;;;;;;;20.08;3.63;;;33.80;56.80;;;;;;5031635;28;20558;-70
2022/07/18 07:45:15;;;;;;;21.88;6.65;;;33.80;56.80;;;;;;5043018;28;20546;-72
2022/07/18 07:47:42;;;;;;;19.25;4.45;;;33.70;57.10;;;;;;5014824;28;20536;-72
2022/07/18 07:50:10;;;;;;;16.25;3.28;;;33.70;57.10;;;;;;5024394;28;20087;-72
2022/07/18 07:52:37;;;;;;;14.13;3.38;;;33.60;57.00;;;;;;5017772;28;20079;-71
2022/07/18 07:55:05;;;;;;;14.05;3.15;;;33.50;57.20;;;;;;5027140;28;20081;-69
2022/07/18 07:57:32;;;;;;;16.20;3.35;;;33.50;57.40;;;;;;5032938;28;20092;-70
2022/07/18 07:59:58;;;;;;;13.45;3.00;;;33.50;57.50;;;;;;5025837;28;20067;-69
2022/07/18 08:02:24;;;;;;;13.18;3.28;;;33.50;57.40;;;;;;5012821;28;20065;-69
2022/07/18 08:04:51;;;;;;;13.77;3.65;;;33.40;57.50;;;;;;5016888;28;20099;-69
2022/07/18 08:07:17;;;;;;;13.00;3.28;;;33.40;57.50;;;;;;5012968;28;20074;-69
2022/07/18 08:09:44;;;;;;;10.40;3.03;;;33.30;57.40;;;;;;5042743;28;20558;-71
2022/07/18 08:12:10;;;;;;;14.20;3.75;;;33.30;57.50;;;;;;5018478;28;20100;-69
2022/07/18 08:14:39;;;;;;;13.02;3.40;;;33.30;57.40;;;;;;5014516;28;20092;-69
2022/07/18 08:17:06;;;;;;;22.17;3.50;;;33.30;57.50;;;;;;5017213;28;20749;-69
2022/07/18 08:19:33;;;;;;;11.45;2.88;;;33.30;57.40;;;;;;5015169;28;20115;-69
2022/07/18 08:21:59;;;;;;;9.18;2.78;;;33.20;57.80;;;;;;5012702;28;20141;-69
2022/07/18 08:24:25;;;;;;;11.40;2.88;;;33.20;57.90;;;;;;5011466;28;20069;-69
2022/07/18 08:26:52;;;;;;;11.02;2.47;;;33.20;58.00;;;;;;5011783;28;20218;-68
2022/07/18 08:29:18;;;;;;;11.10;3.28;;;33.10;58.40;;;;;;5043298;28;20072;-68
2022/07/18 08:31:44;;;;;;;11.48;2.95;;;33.20;58.70;;;;;;5042224;28;20072;-68
2022/07/18 08:34:11;;;;;;;11.63;2.83;;;33.10;59.00;;;;;;5013844;28;20089;-70
2022/07/18 08:36:37;;;;;;;9.25;2.80;;;33.10;59.30;;;;;;5012794;28;20139;-70
2022/07/18 08:39:04;;;;;;;10.95;3.28;;;33.10;59.50;;;;;;5012258;28;20432;-68
2022/07/18 08:41:30;;;;;;;15.93;3.13;;;33.10;60.30;;;;;;5028345;28;20079;-67
2022/07/18 08:43:57;;;;;;;9.80;3.13;;;33.10;61.20;;;;;;5010803;28;20539;-68
2022/07/18 08:46:24;;;;;;;11.75;2.83;;;33.00;62.50;;;;;;5026022;28;20131;-66
2022/07/18 08:48:51;;;;;;;10.18;2.92;;;32.90;63.40;;;;;;5033085;28;20554;-67
2022/07/18 08:51:19;;;;;;;14.48;3.35;;;32.90;64.00;;;;;;5027427;28;20458;-69
2022/07/18 08:53:48;;;;;;;10.15;3.55;;;32.80;64.70;;;;;;5020188;28;20119;-70
2022/07/18 08:56:14;;;;;;;13.52;4.07;;;32.80;65.10;;;;;;5014717;28;20073;-69
2022/07/18 08:58:40;;;;;;;14.13;4.68;;;32.70;65.90;;;;;;5010860;28;20567;-69
2022/07/18 09:01:07;;;;;;;13.82;4.22;;;32.70;66.50;;;;;;5026624;28;20084;-71
2022/07/18 09:03:33;;;;;;;18.20;4.50;;;32.70;66.90;;;;;;5008764;28;20563;-69
2022/07/18 09:06:11;;;;;;;14.35;4.35;;;32.60;67.70;;;;;;5028072;28;20188;-68
2022/07/18 09:08:39;;;;;;;15.85;4.20;;;32.60;68.50;;;;;;5011004;28;20112;-69
2022/07/18 09:11:10;;;;;;;15.80;4.45;;;32.50;69.00;;;;;;5021693;28;20108;-67
2022/07/18 09:13:39;;;;;;;18.42;4.15;;;32.40;70.00;;;;;;5018856;28;20096;-71
2022/07/18 09:16:07;;;;;;;15.88;3.72;;;32.40;70.80;;;;;;5012579;28;20158;-69
2022/07/18 09:18:35;;;;;;;12.32;3.63;;;32.40;71.40;;;;;;5025230;28;20096;-69
2022/07/18 09:21:12;;;;;;;14.13;4.13;;;32.40;71.90;;;;;;5016320;28;20208;-68
2022/07/18 09:23:41;;;;;;;16.25;4.43;;;32.40;72.40;;;;;;5015270;28;20693;-70
2022/07/18 09:26:08;;;;;;;13.10;4.57;;;32.40;72.80;;;;;;5013805;28;20590;-66
2022/07/18 09:28:52;;;;;;;16.02;4.88;;;32.30;73.20;;;;;;5043623;28;20077;-69
2022/07/18 09:31:27;;;;;;;13.68;4.18;;;32.30;73.50;;;;;;5016022;28;20292;-69
2022/07/18 09:33:59;;;;;;;15.98;4.22;;;32.30;73.60;;;;;;5018733;28;20080;-69
2022/07/18 09:36:26;;;;;;;16.98;4.07;;;32.40;73.90;;;;;;5011947;28;20096;-69
2022/07/18 09:38:53;;;;;;;16.42;4.35;;;32.30;74.00;;;;;;5021353;28;20188;-69
2022/07/18 09:41:27;;;;;;;15.30;4.03;;;32.30;74.10;;;;;;5018698;28;20160;-69
2022/07/18 09:43:54;;;;;;;21.33;4.00;;;32.20;75.00;;;;;;5015476;28;20069;-71
2022/07/18 09:46:21;;;;;;;20.80;4.10;;;32.20;76.20;;;;;;5016595;28;20073;-70
2022/07/18 09:48:47;;;;;;;17.10;3.95;;;32.20;76.00;;;;;;5045232;28;20089;-68
2022/07/18 09:51:14;;;;;;;17.80;3.47;;;32.10;76.70;;;;;;5027309;28;20078;-68
2022/07/18 09:53:45;;;;;;;15.23;3.15;;;32.00;77.20;;;;;;5014811;28;20473;-69
2022/07/18 09:56:24;;;;;;;13.75;3.50;;;32.10;77.40;;;;;;5014314;28;20551;-69
2022/07/18 09:58:55;;;;;;;13.70;3.47;;;32.20;77.40;;;;;;5021116;28;20096;-69
2022/07/18 10:01:22;;;;;;;13.70;3.35;;;32.00;77.90;;;;;;5039862;28;20187;-69
2022/07/18 10:03:49;;;;;;;14.88;4.07;;;32.00;78.30;;;;;;5036690;28;20208;-71
2022/07/18 10:06:18;;;;;;;14.02;3.47;;;32.00;78.50;;;;;;5020891;28;20092;-68
2022/07/18 10:08:44;;;;;;;11.40;3.17;;;31.90;78.80;;;;;;5012891;28;20477;-70
2022/07/18 10:11:11;;;;;;;11.60;3.25;;;32.00;78.80;;;;;;5014938;28;20179;-71
2022/07/18 10:13:38;;;;;;;12.02;3.03;;;32.00;78.80;;;;;;5013311;28;20132;-67
2022/07/18 10:16:06;;;;;;;17.15;3.40;;;32.10;78.90;;;;;;5028823;28;20073;-70
2022/07/18 10:18:36;;;;;;;13.93;3.72;;;32.10;79.00;;;;;;5013416;28;20112;-68
2022/07/18 10:21:12;;;;;;;16.58;3.75;;;32.00;79.40;;;;;;5014571;28;20070;-70
2022/07/18 10:23:38;;;;;;;16.73;3.70;;;32.00;80.10;;;;;;5013564;28;20911;-71
2022/07/18 10:26:16;;;;;;;17.63;3.42;;;31.90;80.20;;;;;;5028649;28;20089;-69
2022/07/18 10:28:59;;;;;;;15.70;3.75;;;31.80;80.50;;;;;;5028799;28;20088;-71
2022/07/18 10:31:37;;;;;;;10.15;3.50;;;31.90;80.80;;;;;;5021001;28;20089;-69
2022/07/18 10:34:10;;;;;;;14.20;3.40;;;31.80;81.00;;;;;;5016559;28;20073;-67
2022/07/18 10:36:44;;;;;;;12.15;3.53;;;31.80;82.30;;;;;;5019319;28;20099;-68
2022/07/18 10:39:25;;;;;;;15.85;3.58;;;31.70;81.90;;;;;;5023784;28;20176;-69
2022/07/18 10:41:52;;;;;;;15.65;3.72;;;31.80;81.90;;;;;;5027425;28;20085;-71
2022/07/18 10:47:23;;;;;;;10.40;3.08;;;31.80;81.90;;;;;;5014297;28;20089;-69
2022/07/18 10:49:52;;;;;;;14.38;3.75;;;31.70;81.80;;;;;;4988504;28;20082;-69
2022/07/18 10:52:35;;;;;;;15.63;4.13;;;31.70;81.90;;;;;;4988643;28;20084;-69
2022/07/18 10:55:05;;;;;;;23.60;5.45;;;31.70;81.80;;;;;;4987990;28;20604;-71
2022/07/18 10:57:41;;;;;;;19.95;5.43;;;31.70;81.80;;;;;;4971897;28;20191;-70
2022/07/18 11:00:13;;;;;;;19.38;5.72;;;31.70;82.00;;;;;;4973748;28;20083;-71
2022/07/18 11:02:48;;;;;;;19.35;5.78;;;31.80;82.90;;;;;;4988533;28;20528;-69
2022/07/18 11:05:26;;;;;;;19.80;5.38;;;31.80;82.40;;;;;;4972520;28;20524;-70
2022/07/18 11:08:01;;;;;;;19.15;5.05;;;31.80;82.50;;;;;;4972175;28;20142;-69
2022/07/18 11:10:54;;;;;;;19.33;5.85;;;31.70;82.70;;;;;;4988459;28;20069;-69
2022/07/18 11:16:06;;;;;;;34.60;6.65;;;31.80;83.10;;;;;;4990492;28;20113;-69
2022/07/18 11:18:53;;;;;;;23.05;6.40;;;31.60;83.40;;;;;;4987968;28;20098;-71
2022/07/18 11:21:25;;;;;;;25.35;7.80;;;31.70;83.70;;;;;;4983213;28;20508;-69
2022/07/18 11:23:54;;;;;;;21.80;7.50;;;31.60;84.10;;;;;;4987843;28;20140;-69
2022/07/18 11:26:23;;;;;;;21.67;6.72;;;31.60;84.70;;;;;;5002130;28;20096;-69
2022/07/18 11:29:05;;;;;;;26.15;6.63;;;31.60;85.00;;;;;;5028128;28;20081;-70
2022/07/18 11:31:42;;;;;;;23.17;5.88;;;31.70;85.50;;;;;;5016433;28;20104;-69
2022/07/18 11:34:08;;;;;;;21.92;5.22;;;31.60;86.20;;;;;;5013958;28;20551;-69
2022/07/18 11:36:38;;;;;;;26.65;6.60;;;31.60;86.90;;;;;;5017112;28;20093;-71
2022/07/18 11:39:05;;;;;;;17.55;4.82;;;31.60;87.30;;;;;;5025821;28;20096;-69
2022/07/18 11:41:31;;;;;;;18.67;4.65;;;31.60;87.40;;;;;;5035738;28;20065;-70
2022/07/18 11:43:58;;;;;;;20.67;4.50;;;31.60;87.80;;;;;;5012257;28;20178;-70
2022/07/18 11:46:27;;;;;;;12.43;4.78;;;31.60;88.40;;;;;;5029716;28;20146;-69
2022/07/18 11:49:06;;;;;;;20.42;4.88;;;31.60;88.90;;;;;;5011588;28;20420;-69
2022/07/18 11:51:42;;;;;;;27.33;5.65;;;31.50;89.60;;;;;;5012401;28;20544;-69
2022/07/18 11:54:09;;;;;;;17.92;5.40;;;31.60;90.00;;;;;;5043506;28;20073;-68
2022/07/18 11:56:49;;;;;;;19.63;5.47;;;31.50;90.20;;;;;;5013890;28;20094;-68
2022/07/18 11:59:16;;;;;;;16.58;4.35;;;31.50;90.30;;;;;;5027064;28;20646;-71
2022/07/18 12:01:52;;;;;;;22.80;4.90;;;31.60;90.50;;;;;;5012778;28;20089;-68
2022/07/18 12:04:20;;;;;;;17.30;5.25;;;31.50;90.70;;;;;;5025958;28;20558;-69
2022/07/18 12:07:14;;;;;;;32.38;8.93;;;31.40;91.00;;;;;;5029839;28;20089;-69
2022/07/18 12:09:40;;;;;;;27.38;11.32;;;31.40;91.30;;;;;;5016372;28;20168;-70
2022/07/18 12:12:15;;;;;;;20.05;7.55;;;31.40;91.30;;;;;;5023663;28;20077;-71
2022/07/18 12:14:41;;;;;;;16.65;4.20;;;31.50;91.40;;;;;;5031986;28;20084;-69
2022/07/18 12:17:08;;;;;;;12.35;4.05;;;31.40;91.30;;;;;;5019215;28;20105;-69
2022/07/18 12:19:38;;;;;;;17.25;4.65;;;31.50;91.30;;;;;;5034857;28;20115;-69
2022/07/18 12:22:06;;;;;;;14.15;3.53;;;31.50;91.40;;;;;;5025163;28;20081;-68
2022/07/18 12:24:41;;;;;;;15.57;3.70;;;31.40;91.50;;;;;;5011893;28;20523;-70
2022/07/18 12:27:34;;;;;;;12.75;3.50;;;31.40;91.60;;;;;;5023632;28;20073;-68
2022/07/18 12:30:17;;;;;;;18.88;4.15;;;31.50;91.60;;;;;;5042160;28;20159;-68
2022/07/18 12:32:50;;;;;;;13.20;4.18;;;31.50;91.40;;;;;;5032516;28;20439;-69
2022/07/18 12:35:19;;;;;;;14.73;3.60;;;31.40;91.50;;;;;;5013722;28;20086;-70
2022/07/18 12:38:18;;;;;;;13.63;4.22;;;31.40;91.60;;;;;;5013611;28;20139;-69
2022/07/18 12:40:46;;;;;;;13.20;3.65;;;31.30;91.80;;;;;;4969184;28;20078;-69
2022/07/18 12:43:17;;;;;;;14.38;3.72;;;31.30;91.90;;;;;;4987530;28;20181;-70
2022/07/18 12:45:43;;;;;;;16.05;4.10;;;31.30;91.80;;;;;;4983255;28;20521;-68
2022/07/18 12:48:13;;;;;;;13.48;3.45;;;31.40;91.70;;;;;;4970152;28;20082;-69
2022/07/18 12:50:41;;;;;;;13.38;3.72;;;31.30;91.90;;;;;;4970383;28;20096;-68
2022/07/18 12:53:08;;;;;;;16.42;3.97;;;31.30;91.90;;;;;;4971116;28;20079;-67